Time;durP1;ratioP1;P1;durP2;ratioP2;P2;SDS_P1;SDS_P2;PMS_P1;PMS_P2;Temp;Humidity;BMP_temperature;BMP_pressure;BME280_temperature;BME280_humidity;BME280_pressure;Samples;Min_cycle;Max_cycle;Signal;HPM_P1;HPM_P2
2022/11/25 00:01:16;;;;;;;18.67;10.75;;;8.90;51.90;;;;;;5040429;28;20188;-40
2022/11/25 00:03:44;;;;;;;16.30;10.50;;;8.90;51.90;;;;;;5034923;28;20195;-40
2022/11/25 00:06:10;;;;;;;16.15;10.43;;;8.80;52.00;;;;;;5034359;28;20203;-39
2022/11/25 00:08:37;;;;;;;16.17;10.85;;;8.80;52.00;;;;;;5034655;28;20212;-39
2022/11/25 00:11:04;;;;;;;18.02;11.70;;;8.80;52.10;;;;;;5034979;28;20537;-40
2022/11/25 00:13:30;;;;;;;11.93;8.82;;;8.90;53.10;;;;;;5034857;28;20179;-39
2022/11/25 00:15:55;;;;;;;16.75;12.00;;;8.90;52.30;;;;;;5034116;28;20170;-39
2022/11/25 00:18:21;;;;;;;14.20;9.70;;;8.90;52.20;;;;;;5034672;28;20251;-38
2022/11/25 00:20:47;;;;;;;13.77;10.87;;;8.90;52.10;;;;;;5034799;28;20262;-39
2022/11/25 00:23:12;;;;;;;15.63;10.77;;;8.90;52.10;;;;;;5033503;28;20170;-38
2022/11/25 00:25:38;;;;;;;14.57;10.10;;;9.00;52.10;;;;;;5033928;28;20216;-40
2022/11/25 00:28:04;;;;;;;13.93;9.40;;;9.00;52.10;;;;;;5034383;28;20184;-40
2022/11/25 00:30:30;;;;;;;14.20;9.40;;;9.00;52.10;;;;;;5034726;28;20172;-39
2022/11/25 00:32:55;;;;;;;19.87;11.40;;;9.00;52.10;;;;;;5034426;28;20192;-40
2022/11/25 00:35:21;;;;;;;16.30;10.17;;;9.00;52.00;;;;;;5034299;28;20676;-40
2022/11/25 00:37:47;;;;;;;17.30;10.10;;;9.00;52.00;;;;;;5033661;28;20248;-40
2022/11/25 00:40:13;;;;;;;18.77;11.17;;;9.00;52.10;;;;;;5034377;28;20272;-39
2022/11/25 00:45:22;;;;;;;13.20;9.40;;;9.00;52.00;;;;;;5034092;28;20462;-40
2022/11/25 00:47:48;;;;;;;14.77;12.17;;;9.00;52.00;;;;;;5033806;28;20199;-39
2022/11/25 00:50:14;;;;;;;18.00;10.03;;;9.00;52.00;;;;;;5033978;28;20209;-39
2022/11/25 00:52:39;;;;;;;13.17;9.60;;;9.00;52.00;;;;;;5034054;28;20174;-39
2022/11/25 00:55:05;;;;;;;11.97;9.60;;;8.90;52.00;;;;;;5034039;28;20409;-40
2022/11/25 00:57:31;;;;;;;13.52;9.90;;;9.00;52.10;;;;;;5033332;28;20332;-40
2022/11/25 00:59:57;;;;;;;20.57;10.53;;;9.00;52.20;;;;;;5033799;28;20945;-40
2022/11/25 01:02:23;;;;;;;17.83;11.00;;;9.00;52.20;;;;;;5033925;28;20214;-40
2022/11/25 01:04:48;;;;;;;16.90;10.70;;;9.00;52.20;;;;;;5033849;28;20193;-40
2022/11/25 01:07:15;;;;;;;16.93;10.43;;;9.00;52.10;;;;;;5033001;28;20216;-39
2022/11/25 01:09:41;;;;;;;16.23;10.25;;;9.00;52.00;;;;;;5033770;28;20162;-40
2022/11/25 01:12:07;;;;;;;10.97;8.47;;;9.00;51.90;;;;;;5033654;28;20189;-39
2022/11/25 01:14:33;;;;;;;14.23;8.63;;;9.00;51.90;;;;;;5033720;28;20682;-39
2022/11/25 01:16:59;;;;;;;12.68;9.63;;;9.00;51.70;;;;;;5033127;28;20234;-39
2022/11/25 01:19:25;;;;;;;11.23;8.67;;;8.90;51.60;;;;;;5033525;28;20228;-39
2022/11/25 01:21:51;;;;;;;12.10;7.60;;;8.90;51.50;;;;;;5033764;28;20413;-40
2022/11/25 01:24:17;;;;;;;12.10;7.73;;;8.80;51.30;;;;;;5033700;28;20665;-39
2022/11/25 01:26:43;;;;;;;11.30;9.23;;;8.80;51.30;;;;;;5032779;28;20221;-39
2022/11/25 01:29:14;;;;;;;11.82;8.63;;;8.80;51.60;;;;;;5033315;28;20178;-40
2022/11/25 01:31:41;;;;;;;14.23;9.07;;;8.70;51.50;;;;;;5033275;28;20249;-39
2022/11/25 01:34:15;;;;;;;17.20;10.13;;;8.70;51.30;;;;;;5033080;28;20178;-39
2022/11/25 01:36:41;;;;;;;12.63;8.20;;;8.60;51.10;;;;;;5032530;28;20224;-39
2022/11/25 01:39:07;;;;;;;8.98;7.35;;;8.60;51.20;;;;;;5033206;28;20220;-39
2022/11/25 01:41:34;;;;;;;13.93;9.40;;;8.50;50.60;;;;;;5033070;28;20646;-40
2022/11/25 01:44:18;;;;;;;15.48;8.98;;;8.40;50.80;;;;;;5033260;28;20460;-39
2022/11/25 01:46:52;;;;;;;13.68;8.73;;;8.40;51.20;;;;;;5032372;28;20778;-38
2022/11/25 01:49:30;;;;;;;13.25;8.75;;;8.40;51.20;;;;;;5032972;28;20177;-39
2022/11/25 01:52:00;;;;;;;14.48;7.65;;;8.30;51.30;;;;;;5032909;28;20166;-39
2022/11/25 01:54:30;;;;;;;9.88;7.50;;;8.30;51.10;;;;;;5032918;28;20176;-40
2022/11/25 01:57:02;;;;;;;10.63;7.63;;;8.30;51.10;;;;;;5032533;28;20202;-39
2022/11/25 01:59:32;;;;;;;13.70;8.80;;;8.30;51.20;;;;;;5032768;28;20672;-40
2022/11/25 02:01:58;;;;;;;13.10;7.22;;;8.30;51.50;;;;;;5032977;28;20227;-39
2022/11/25 02:04:30;;;;;;;15.38;8.98;;;8.30;51.80;;;;;;5032610;28;20200;-39
2022/11/25 02:07:04;;;;;;;12.82;7.20;;;8.30;51.70;;;;;;5032088;28;20282;-39
2022/11/25 02:09:30;;;;;;;12.50;7.75;;;8.30;51.80;;;;;;5032592;28;20231;-38
2022/11/25 02:11:56;;;;;;;10.60;7.85;;;8.40;51.90;;;;;;5032564;28;20177;-39
2022/11/25 02:14:24;;;;;;;8.52;6.65;;;8.40;51.80;;;;;;5032822;28;20170;-39
2022/11/25 02:16:49;;;;;;;9.60;7.40;;;8.50;51.90;;;;;;5031819;28;20235;-40
2022/11/25 02:19:24;;;;;;;11.83;6.93;;;8.50;51.90;;;;;;5032699;28;20203;-39
2022/11/25 02:22:01;;;;;;;8.32;6.30;;;8.60;51.90;;;;;;5032712;28;20306;-39
2022/11/25 02:24:37;;;;;;;10.50;7.07;;;8.60;52.00;;;;;;5032448;28;20204;-39
2022/11/25 02:27:03;;;;;;;12.10;7.47;;;8.60;52.10;;;;;;5031738;28;20286;-39
2022/11/25 02:29:29;;;;;;;10.93;6.57;;;8.70;52.20;;;;;;5032224;28;20268;-40
2022/11/25 02:31:55;;;;;;;12.18;7.88;;;8.70;52.10;;;;;;5032524;28;20170;-40
2022/11/25 02:34:21;;;;;;;12.97;7.50;;;8.80;52.10;;;;;;5032517;28;20562;-39
2022/11/25 02:36:47;;;;;;;13.17;8.20;;;8.80;52.10;;;;;;5031495;28;20197;-39
2022/11/25 02:39:13;;;;;;;13.40;7.25;;;8.90;52.10;;;;;;5032218;28;20187;-39
2022/11/25 02:41:44;;;;;;;9.30;6.80;;;8.90;52.10;;;;;;5032423;28;20181;-40
2022/11/25 02:44:10;;;;;;;8.80;7.85;;;9.00;52.00;;;;;;5032107;28;21012;-40
2022/11/25 02:46:36;;;;;;;12.20;7.17;;;9.00;52.00;;;;;;5030800;28;20295;-39
2022/11/25 02:49:02;;;;;;;11.33;8.80;;;8.90;52.10;;;;;;5032314;28;20176;-39
2022/11/25 02:51:30;;;;;;;14.13;8.38;;;9.00;52.10;;;;;;5031993;28;20929;-39
2022/11/25 02:53:56;;;;;;;13.48;10.38;;;9.00;52.10;;;;;;5031988;28;20180;-40
2022/11/25 02:56:25;;;;;;;12.30;7.30;;;9.10;52.20;;;;;;5031276;28;20182;-39
2022/11/25 02:58:51;;;;;;;11.38;7.28;;;9.10;52.10;;;;;;5032210;28;20174;-39
2022/11/25 03:01:16;;;;;;;18.37;9.20;;;9.00;51.90;;;;;;5031930;28;20660;-39
2022/11/25 03:03:43;;;;;;;14.60;9.10;;;9.00;52.00;;;;;;5032155;28;20289;-39
2022/11/25 03:06:09;;;;;;;10.82;8.35;;;9.00;52.00;;;;;;5031344;28;20257;-39
2022/11/25 03:08:35;;;;;;;16.92;9.57;;;9.00;52.10;;;;;;5068742;23;20219;-34
2022/11/25 03:11:01;;;;;;;10.75;8.15;;;9.00;52.10;;;;;;5051874;28;20234;-35
2022/11/25 03:13:27;;;;;;;13.60;8.80;;;9.10;52.20;;;;;;5052178;28;20176;-38
2022/11/25 03:15:53;;;;;;;12.68;7.85;;;9.10;52.10;;;;;;5051332;28;20183;-35
2022/11/25 03:18:18;;;;;;;13.73;8.07;;;9.10;52.10;;;;;;5051728;28;20192;-37
2022/11/25 03:20:44;;;;;;;12.00;7.20;;;9.10;52.10;;;;;;5051783;28;20536;-36
2022/11/25 03:23:10;;;;;;;17.57;8.80;;;9.10;52.20;;;;;;5051708;28;20196;-40
2022/11/25 03:25:36;;;;;;;13.87;8.37;;;9.10;52.20;;;;;;5051480;28;20205;-39
2022/11/25 03:28:02;;;;;;;9.33;7.23;;;9.10;52.20;;;;;;5052316;28;20192;-38
2022/11/25 03:30:29;;;;;;;12.05;7.53;;;9.10;52.20;;;;;;5051949;28;20172;-38
2022/11/25 03:32:55;;;;;;;10.88;7.70;;;9.10;52.30;;;;;;5051660;28;20169;-36
2022/11/25 03:35:22;;;;;;;13.70;9.10;;;9.10;52.20;;;;;;5051779;28;20176;-39
2022/11/25 03:37:48;;;;;;;17.73;9.05;;;9.20;52.20;;;;;;5051249;28;20818;-38
2022/11/25 03:40:15;;;;;;;13.60;8.70;;;9.20;52.20;;;;;;5052312;28;20230;-39
2022/11/25 03:42:41;;;;;;;14.85;9.32;;;9.10;52.30;;;;;;5051572;28;20172;-36
2022/11/25 03:45:09;;;;;;;15.70;8.88;;;9.10;52.40;;;;;;5051342;28;20262;-36
2022/11/25 03:47:35;;;;;;;14.25;7.93;;;9.20;52.50;;;;;;5050888;28;20246;-39
2022/11/25 03:50:01;;;;;;;17.42;9.80;;;9.20;52.30;;;;;;5051635;28;20188;-39
2022/11/25 03:52:27;;;;;;;10.00;7.50;;;9.20;52.30;;;;;;5051766;28;20169;-37
2022/11/25 03:54:53;;;;;;;13.47;9.60;;;9.20;52.30;;;;;;5051418;28;20558;-39
2022/11/25 03:57:18;;;;;;;12.83;9.30;;;9.20;52.20;;;;;;5052430;28;20644;-39
2022/11/25 03:59:44;;;;;;;15.20;8.70;;;9.20;52.30;;;;;;5055280;28;20196;-36
2022/11/25 04:02:10;;;;;;;13.83;9.07;;;9.30;52.30;;;;;;5054915;28;20184;-36
2022/11/25 04:04:36;;;;;;;11.90;7.83;;;9.20;52.20;;;;;;5055236;28;20454;-39
2022/11/25 04:07:01;;;;;;;11.30;7.77;;;9.30;52.40;;;;;;5054219;28;20165;-37
2022/11/25 04:09:27;;;;;;;12.93;9.43;;;9.20;52.40;;;;;;5054702;28;20208;-37
2022/11/25 04:14:37;;;;;;;13.00;8.52;;;9.20;52.50;;;;;;5055008;28;20179;-38
2022/11/25 04:17:03;;;;;;;12.70;7.80;;;9.20;52.40;;;;;;5054142;28;20172;-36
2022/11/25 04:19:28;;;;;;;9.00;7.80;;;9.20;52.40;;;;;;5054602;28;20787;-36
2022/11/25 04:21:58;;;;;;;10.23;7.33;;;9.20;52.50;;;;;;5054557;28;20632;-35
2022/11/25 04:24:24;;;;;;;14.30;8.70;;;9.20;52.50;;;;;;5054661;28;20557;-36
2022/11/25 04:26:50;;;;;;;13.07;8.87;;;9.20;52.50;;;;;;5053934;28;20181;-38
2022/11/25 04:29:15;;;;;;;15.30;9.83;;;9.30;52.60;;;;;;5054329;28;20195;-38
2022/11/25 04:31:41;;;;;;;11.30;8.87;;;9.30;52.50;;;;;;5054360;28;20403;-36
2022/11/25 04:34:07;;;;;;;14.97;7.87;;;9.30;52.40;;;;;;5054395;28;20718;-36
2022/11/25 04:36:32;;;;;;;13.03;8.13;;;9.30;52.30;;;;;;5053778;28;20173;-36
2022/11/25 04:38:58;;;;;;;11.00;7.37;;;9.40;52.30;;;;;;5054124;28;20661;-37
2022/11/25 04:41:26;;;;;;;13.80;8.40;;;9.40;52.30;;;;;;5054508;28;20584;-37
2022/11/25 04:43:52;;;;;;;12.63;9.00;;;9.40;52.20;;;;;;5054290;28;20288;-35
2022/11/25 04:46:23;;;;;;;13.37;9.30;;;9.40;52.30;;;;;;5053600;28;20260;-38
2022/11/25 04:48:49;;;;;;;12.93;9.07;;;9.40;52.30;;;;;;5054386;28;20197;-37
2022/11/25 04:51:15;;;;;;;11.10;8.70;;;9.30;52.50;;;;;;5054143;28;20226;-35
2022/11/25 04:53:42;;;;;;;12.40;9.20;;;9.30;52.50;;;;;;5053999;28;20169;-36
2022/11/25 04:56:10;;;;;;;14.73;7.80;;;9.30;52.60;;;;;;5053412;28;20433;-37
2022/11/25 05:01:19;;;;;;;11.65;7.43;;;9.30;52.80;;;;;;5054245;28;20178;-36
2022/11/25 05:03:48;;;;;;;13.53;8.40;;;9.30;52.80;;;;;;5052517;28;20173;-38
2022/11/25 05:06:13;;;;;;;12.90;8.48;;;9.30;52.80;;;;;;5053215;28;20172;-35
2022/11/25 05:08:39;;;;;;;9.17;7.57;;;9.30;52.80;;;;;;5053146;28;20223;-36
2022/11/25 05:11:05;;;;;;;11.83;7.10;;;9.30;52.70;;;;;;5053846;28;20525;-36
2022/11/25 05:13:30;;;;;;;9.50;6.90;;;9.30;52.60;;;;;;5054094;28;20176;-38
2022/11/25 05:15:59;;;;;;;12.83;7.90;;;9.30;52.50;;;;;;5052944;28;20178;-39
2022/11/25 05:18:24;;;;;;;11.95;7.82;;;9.30;52.30;;;;;;5053463;28;20555;-40
2022/11/25 05:20:50;;;;;;;10.53;7.37;;;9.30;52.30;;;;;;5053492;28;20176;-37
2022/11/25 05:23:16;;;;;;;14.33;7.83;;;9.20;52.00;;;;;;5052369;28;20204;-36
2022/11/25 05:25:41;;;;;;;15.13;8.63;;;9.20;51.90;;;;;;5052698;28;20643;-37
2022/11/25 05:28:07;;;;;;;13.10;8.70;;;9.10;51.90;;;;;;5053218;28;20607;-36
2022/11/25 05:30:33;;;;;;;10.20;6.63;;;9.00;51.70;;;;;;5053632;28;20173;-38
2022/11/25 05:32:59;;;;;;;15.60;7.83;;;8.90;51.70;;;;;;5053235;28;20632;-39
2022/11/25 05:35:24;;;;;;;10.33;6.43;;;8.90;51.90;;;;;;5053523;28;20180;-38
2022/11/25 05:37:50;;;;;;;11.80;7.50;;;8.80;51.80;;;;;;5053450;28;20558;-39
2022/11/25 05:40:16;;;;;;;10.80;6.83;;;8.80;51.70;;;;;;5053778;28;20628;-39
2022/11/25 05:42:44;;;;;;;10.63;8.10;;;8.70;51.80;;;;;;5053788;28;20169;-39
2022/11/25 05:45:11;;;;;;;13.65;8.40;;;8.70;51.70;;;;;;5053646;28;20207;-39
2022/11/25 05:47:36;;;;;;;12.45;8.60;;;8.60;51.70;;;;;;5053454;28;20538;-40
2022/11/25 05:50:02;;;;;;;15.87;8.10;;;8.60;51.70;;;;;;5053782;28;20183;-40
2022/11/25 05:52:28;;;;;;;13.17;8.80;;;8.50;51.70;;;;;;5054135;28;20206;-40
2022/11/25 05:54:54;;;;;;;12.57;7.80;;;8.50;51.70;;;;;;5054299;28;20400;-40
2022/11/25 05:57:19;;;;;;;14.43;7.00;;;8.40;51.70;;;;;;5053267;28;20173;-38
2022/11/25 05:59:45;;;;;;;11.77;7.20;;;8.40;51.70;;;;;;5053892;28;20581;-38
2022/11/25 06:02:11;;;;;;;12.37;8.70;;;8.40;51.70;;;;;;5053709;28;20166;-39
2022/11/25 06:04:37;;;;;;;12.23;8.47;;;8.40;51.80;;;;;;5053762;28;20258;-38
2022/11/25 06:07:02;;;;;;;10.27;7.30;;;8.30;51.60;;;;;;5053288;28;20162;-38
2022/11/25 06:09:28;;;;;;;9.33;7.27;;;8.30;51.50;;;;;;5055772;28;20209;-38
2022/11/25 06:11:54;;;;;;;11.57;7.70;;;8.30;52.00;;;;;;5056040;28;20454;-38
2022/11/25 06:14:19;;;;;;;10.70;7.33;;;8.20;51.00;;;;;;5056425;28;20256;-38
2022/11/25 06:16:45;;;;;;;10.43;8.70;;;8.20;51.10;;;;;;5055798;28;20215;-38
2022/11/25 06:19:11;;;;;;;13.00;7.70;;;8.10;51.10;;;;;;5055899;28;20189;-39
2022/11/25 06:21:37;;;;;;;15.63;9.00;;;8.10;51.10;;;;;;5055404;28;20173;-38
2022/11/25 06:24:02;;;;;;;12.10;7.93;;;8.00;50.70;;;;;;5055024;28;20661;-38
2022/11/25 06:26:28;;;;;;;10.70;8.33;;;8.00;51.00;;;;;;5053868;28;20169;-38
2022/11/25 06:28:55;;;;;;;11.03;7.90;;;8.00;51.10;;;;;;5052977;28;20223;-39
2022/11/25 06:31:23;;;;;;;10.57;8.38;;;7.90;51.00;;;;;;5052379;28;20174;-39
2022/11/25 06:33:51;;;;;;;16.13;9.70;;;7.90;51.10;;;;;;5052289;28;20206;-39
2022/11/25 06:36:18;;;;;;;12.80;8.45;;;7.80;51.00;;;;;;5052190;28;20264;-39
2022/11/25 06:38:46;;;;;;;14.05;8.70;;;7.80;51.00;;;;;;5052287;28;20197;-39
2022/11/25 06:41:12;;;;;;;13.93;9.50;;;7.70;50.90;;;;;;5052382;28;20184;-38
2022/11/25 06:43:38;;;;;;;14.20;8.45;;;7.70;50.90;;;;;;5052197;28;20185;-39
2022/11/25 06:46:06;;;;;;;12.80;9.03;;;7.60;50.70;;;;;;5051588;28;20538;-38
2022/11/25 06:48:32;;;;;;;12.52;8.30;;;7.60;50.70;;;;;;5052111;28;20220;-38
2022/11/25 06:51:00;;;;;;;15.13;9.57;;;7.50;50.50;;;;;;5052155;28;20188;-38
2022/11/25 06:53:26;;;;;;;12.90;10.25;;;7.50;50.50;;;;;;5052205;28;20574;-38
2022/11/25 06:56:10;;;;;;;14.82;9.35;;;7.40;50.50;;;;;;5050760;28;20181;-38
2022/11/25 06:58:37;;;;;;;17.98;9.85;;;7.50;51.00;;;;;;5051956;28;20186;-39
2022/11/25 07:01:13;;;;;;;16.10;10.05;;;7.50;51.00;;;;;;5052146;28;20648;-38
2022/11/25 07:03:40;;;;;;;16.13;8.80;;;7.50;50.80;;;;;;5052036;28;20180;-38
2022/11/25 07:06:06;;;;;;;14.50;9.90;;;7.50;51.00;;;;;;5050276;28;20208;-38
2022/11/25 07:08:32;;;;;;;14.98;9.77;;;7.50;50.90;;;;;;5051884;28;20282;-38
2022/11/25 07:11:03;;;;;;;12.93;8.80;;;7.60;50.80;;;;;;5052118;28;20200;-39
2022/11/25 07:13:29;;;;;;;13.68;10.82;;;7.50;50.70;;;;;;5051852;28;20408;-38
2022/11/25 07:15:54;;;;;;;19.43;12.73;;;7.60;50.70;;;;;;5051385;28;20176;-38
2022/11/25 07:18:20;;;;;;;16.00;11.13;;;7.60;50.70;;;;;;5051862;28;20427;-38
2022/11/25 07:20:46;;;;;;;24.50;13.50;;;7.60;50.70;;;;;;5051963;28;20648;-38
2022/11/25 07:23:11;;;;;;;23.57;12.73;;;7.60;50.80;;;;;;5051848;28;20183;-38
2022/11/25 07:25:37;;;;;;;18.20;12.00;;;7.70;51.00;;;;;;5051178;28;20210;-38
2022/11/25 07:28:03;;;;;;;25.33;12.43;;;7.70;50.90;;;;;;5052038;28;20189;-38
2022/11/25 07:30:29;;;;;;;26.50;10.83;;;7.70;50.90;;;;;;5052053;28;20201;-38
2022/11/25 07:32:55;;;;;;;15.87;11.43;;;7.80;51.00;;;;;;5054597;28;20907;-38
2022/11/25 07:35:20;;;;;;;16.07;10.00;;;7.80;50.90;;;;;;5055582;28;20173;-38
2022/11/25 07:37:46;;;;;;;13.43;10.30;;;7.80;50.90;;;;;;5054913;28;20430;-38
2022/11/25 07:40:12;;;;;;;13.30;10.13;;;7.90;51.10;;;;;;5055538;28;20169;-38
2022/11/25 07:42:38;;;;;;;17.55;13.15;;;7.90;51.10;;;;;;5055374;28;20195;-38
2022/11/25 07:45:04;;;;;;;14.13;10.35;;;8.00;51.00;;;;;;5056213;28;20637;-38
2022/11/25 07:47:34;;;;;;;15.57;10.82;;;8.00;51.00;;;;;;5054720;28;20171;-38
2022/11/25 07:49:59;;;;;;;19.42;11.30;;;8.10;51.20;;;;;;5055253;28;20642;-38
2022/11/25 07:52:25;;;;;;;21.30;10.57;;;8.10;51.20;;;;;;5055734;28;20238;-38
2022/11/25 07:54:52;;;;;;;17.57;11.33;;;8.10;51.30;;;;;;5055234;28;20173;-38
2022/11/25 07:57:18;;;;;;;21.63;10.93;;;8.20;51.20;;;;;;5054741;28;20408;-38
2022/11/25 07:59:43;;;;;;;17.07;12.67;;;8.30;52.10;;;;;;5055212;28;20249;-39
2022/11/25 08:02:09;;;;;;;20.17;12.40;;;8.40;51.40;;;;;;5055350;28;20208;-38
2022/11/25 08:04:36;;;;;;;15.10;10.13;;;8.60;51.30;;;;;;5055326;28;20290;-39
2022/11/25 08:07:02;;;;;;;16.88;11.02;;;8.60;51.10;;;;;;5054411;28;20632;-38
2022/11/25 08:09:27;;;;;;;19.40;11.30;;;8.60;51.00;;;;;;5054448;28;20211;-38
2022/11/25 08:11:53;;;;;;;15.73;11.17;;;8.70;51.20;;;;;;5054966;28;20507;-38
2022/11/25 08:14:20;;;;;;;15.50;11.37;;;8.70;51.20;;;;;;5054998;28;20174;-37
2022/11/25 08:16:46;;;;;;;19.58;11.13;;;8.80;51.10;;;;;;5054800;28;20420;-38
2022/11/25 08:19:14;;;;;;;15.65;10.02;;;8.80;51.00;;;;;;5055367;28;20249;-38
2022/11/25 08:21:40;;;;;;;12.85;9.75;;;8.90;51.00;;;;;;5055359;28;20219;-38
2022/11/25 08:24:06;;;;;;;16.30;10.93;;;8.90;50.90;;;;;;5054979;28;20534;-38
2022/11/25 08:26:36;;;;;;;18.87;10.43;;;9.10;50.70;;;;;;5054325;28;20225;-39
2022/11/25 08:29:03;;;;;;;16.83;11.23;;;9.20;50.80;;;;;;5054829;28;20485;-38
2022/11/25 08:31:34;;;;;;;19.55;11.80;;;9.30;50.70;;;;;;5054954;28;20173;-39
2022/11/25 08:34:00;;;;;;;12.68;9.35;;;9.40;50.60;;;;;;5055119;28;20156;-38
2022/11/25 08:36:27;;;;;;;20.38;11.93;;;9.60;50.40;;;;;;5054471;28;20180;-38
2022/11/25 08:38:56;;;;;;;18.35;10.88;;;9.80;50.00;;;;;;5054810;28;20292;-38
2022/11/25 08:41:28;;;;;;;16.48;10.63;;;10.00;50.10;;;;;;5055296;28;20541;-38
2022/11/25 08:43:54;;;;;;;15.60;10.18;;;10.30;49.90;;;;;;5054041;28;20635;-39
2022/11/25 08:46:24;;;;;;;15.25;9.93;;;10.50;48.60;;;;;;5054819;28;20176;-38
2022/11/25 08:48:50;;;;;;;12.85;9.50;;;11.00;48.10;;;;;;5055890;28;20235;-39
2022/11/25 08:51:19;;;;;;;16.10;10.37;;;11.30;47.30;;;;;;5056202;28;20173;-39
2022/11/25 08:53:46;;;;;;;14.15;11.05;;;11.80;47.20;;;;;;5056234;28;20212;-39
2022/11/25 08:56:12;;;;;;;14.70;9.23;;;12.30;47.00;;;;;;5055101;28;20227;-39
2022/11/25 08:58:38;;;;;;;14.50;10.90;;;12.60;45.50;;;;;;5055284;28;20268;-39
2022/11/25 09:01:06;;;;;;;11.43;9.95;;;12.60;44.80;;;;;;5055251;28;20198;-39
2022/11/25 09:03:37;;;;;;;19.38;10.20;;;12.50;45.20;;;;;;5054861;28;20196;-39
2022/11/25 09:06:04;;;;;;;11.48;9.30;;;12.50;45.10;;;;;;5053812;28;20629;-39
2022/11/25 09:08:30;;;;;;;10.68;8.30;;;12.70;45.50;;;;;;5062860;22;20221;-41
2022/11/25 09:10:57;;;;;;;15.05;9.73;;;12.80;45.00;;;;;;5033455;28;20208;-42
2022/11/25 09:13:23;;;;;;;13.38;9.23;;;12.90;44.10;;;;;;5033711;28;20169;-41
2022/11/25 09:15:48;;;;;;;12.67;10.00;;;12.80;44.00;;;;;;5033123;28;20182;-41
2022/11/25 09:18:15;;;;;;;12.13;8.53;;;12.70;44.10;;;;;;5033458;28;20432;-40
2022/11/25 09:20:41;;;;;;;11.07;8.52;;;12.60;43.30;;;;;;5033744;28;20189;-40
2022/11/25 09:23:08;;;;;;;10.33;8.67;;;12.50;44.00;;;;;;5033671;28;20659;-41
2022/11/25 09:25:34;;;;;;;15.65;9.65;;;12.20;42.90;;;;;;5032913;28;20510;-41
2022/11/25 09:28:01;;;;;;;12.43;8.52;;;11.90;43.60;;;;;;5033572;28;20201;-42
2022/11/25 09:30:26;;;;;;;15.82;10.32;;;11.70;44.70;;;;;;5033332;28;20245;-40
2022/11/25 09:32:54;;;;;;;15.13;9.77;;;11.70;45.50;;;;;;5033504;28;20634;-42
2022/11/25 09:35:21;;;;;;;13.70;9.70;;;11.80;44.80;;;;;;5033192;28;20419;-42
2022/11/25 09:37:46;;;;;;;16.35;10.80;;;12.00;45.00;;;;;;5032755;28;20237;-41
2022/11/25 09:40:42;;;;;;;10.17;7.30;;;12.00;45.20;;;;;;5033205;28;20797;-42
2022/11/25 09:46:46;;;;;;;12.27;8.50;;;12.30;44.60;;;;;;5032811;28;20181;-41
2022/11/25 09:49:46;;;;;;;11.45;7.78;;;12.30;44.10;;;;;;5032995;28;20205;-40
2022/11/25 09:52:34;;;;;;;12.50;9.18;;;12.30;44.70;;;;;;5032902;28;20174;-40
2022/11/25 09:55:13;;;;;;;13.35;9.88;;;12.40;44.00;;;;;;5032802;28;20173;-40
2022/11/25 09:57:56;;;;;;;10.15;8.20;;;12.60;44.10;;;;;;5032439;28;20200;-40
2022/11/25 10:00:23;;;;;;;9.73;7.47;;;12.90;44.30;;;;;;5032815;28;20168;-40
2022/11/25 10:03:20;;;;;;;14.20;9.55;;;13.00;43.10;;;;;;5033038;28;20216;-40
2022/11/25 10:06:10;;;;;;;12.88;8.65;;;13.30;43.00;;;;;;5030957;28;20194;-40
2022/11/25 10:08:49;;;;;;;9.43;7.35;;;13.20;42.40;;;;;;5032581;28;20249;-39
2022/11/25 10:11:27;;;;;;;12.52;8.57;;;13.20;42.80;;;;;;5032657;28;20170;-40
2022/11/25 10:14:25;;;;;;;10.70;8.50;;;13.30;42.60;;;;;;5032605;28;20170;-41
2022/11/25 10:17:06;;;;;;;10.35;7.45;;;13.30;42.30;;;;;;4944017;28;20243;-40
2022/11/25 10:19:59;;;;;;;13.18;9.60;;;13.20;42.60;;;;;;5032405;28;20272;-40
2022/11/25 10:22:37;;;;;;;14.38;10.23;;;13.10;42.50;;;;;;5032602;28;20182;-40
2022/11/25 10:25:18;;;;;;;15.35;8.82;;;13.10;42.40;;;;;;5032507;28;20202;-40
2022/11/25 10:27:57;;;;;;;14.02;9.13;;;13.10;42.40;;;;;;5031621;28;20273;-40
2022/11/25 10:30:26;;;;;;;14.98;9.23;;;13.20;42.70;;;;;;5032353;28;20150;-40
2022/11/25 10:33:12;;;;;;;14.40;10.10;;;13.20;42.60;;;;;;5032205;28;20749;-37
2022/11/25 10:35:44;;;;;;;13.02;8.50;;;13.20;42.70;;;;;;5031637;28;20177;-38
2022/11/25 10:38:26;;;;;;;9.85;7.38;;;13.30;43.10;;;;;;5032038;28;20285;-38
2022/11/25 10:40:53;;;;;;;15.40;10.13;;;13.40;41.90;;;;;;5032402;28;20518;-37
2022/11/25 10:43:19;;;;;;;14.77;8.85;;;13.30;42.40;;;;;;5032159;28;20173;-37
2022/11/25 10:46:14;;;;;;;17.60;8.55;;;13.40;43.60;;;;;;5031366;28;20693;-37
2022/11/25 10:48:45;;;;;;;12.57;8.63;;;13.70;43.00;;;;;;5032288;28;20209;-36
2022/11/25 10:51:38;;;;;;;11.07;8.27;;;13.80;42.80;;;;;;5031858;28;20166;-36
2022/11/25 10:54:23;;;;;;;11.32;7.80;;;13.90;42.60;;;;;;5032058;28;20336;-40
2022/11/25 10:56:50;;;;;;;12.05;8.88;;;14.00;42.60;;;;;;5031442;28;20176;-41
2022/11/25 10:59:28;;;;;;;12.95;8.15;;;14.00;42.40;;;;;;5032100;28;20205;-41
2022/11/25 11:02:22;;;;;;;14.82;8.88;;;14.20;42.90;;;;;;5032056;28;20218;-41
2022/11/25 11:05:01;;;;;;;11.80;8.73;;;14.20;42.20;;;;;;5031927;28;20197;-41
2022/11/25 11:07:32;;;;;;;15.68;7.50;;;14.20;40.80;;;;;;5033189;28;20170;-42
2022/11/25 11:10:13;;;;;;;8.68;5.68;;;14.20;42.10;;;;;;5035826;28;20213;-39
2022/11/25 11:12:59;;;;;;;9.77;7.10;;;14.30;40.00;;;;;;5035943;28;20181;-41
2022/11/25 11:15:48;;;;;;;10.65;7.13;;;14.20;42.20;;;;;;5035774;28;20185;-40
2022/11/25 11:18:26;;;;;;;12.43;6.97;;;14.30;41.50;;;;;;5035814;28;20259;-42
2022/11/25 11:20:58;;;;;;;8.43;6.60;;;14.20;41.50;;;;;;5035719;28;20235;-42
2022/11/25 11:23:25;;;;;;;11.15;7.85;;;14.30;42.30;;;;;;5035561;28;20193;-41
2022/11/25 11:25:59;;;;;;;12.75;7.32;;;14.40;41.60;;;;;;5035145;28;20206;-41
2022/11/25 11:28:31;;;;;;;12.30;8.60;;;14.50;41.70;;;;;;5035435;28;20856;-41
2022/11/25 11:31:06;;;;;;;12.45;6.90;;;14.60;41.90;;;;;;5035723;28;20162;-38
2022/11/25 11:33:52;;;;;;;11.85;6.72;;;14.70;42.00;;;;;;5035799;28;20214;-37
2022/11/25 11:36:39;;;;;;;10.13;7.80;;;14.80;41.50;;;;;;5034878;28;20257;-37
2022/11/25 11:39:23;;;;;;;12.25;7.30;;;15.60;42.00;;;;;;5035484;28;20202;-38
2022/11/25 11:42:17;;;;;;;9.18;5.70;;;15.20;40.90;;;;;;5035401;28;20170;-37
2022/11/25 11:45:19;;;;;;;10.80;8.52;;;15.30;40.30;;;;;;5035525;28;20190;-40
2022/11/25 11:48:10;;;;;;;11.75;6.82;;;15.50;40.50;;;;;;5034677;28;20201;-39
2022/11/25 11:50:46;;;;;;;8.30;5.93;;;15.50;40.70;;;;;;5035156;28;20178;-41
2022/11/25 11:53:14;;;;;;;8.75;6.90;;;15.50;40.30;;;;;;5035345;28;20580;-41
2022/11/25 11:56:16;;;;;;;10.15;7.20;;;15.60;40.60;;;;;;5034432;28;20178;-41
2022/11/25 11:58:42;;;;;;;8.82;5.65;;;15.70;40.20;;;;;;5034304;28;20201;-41
2022/11/25 12:01:26;;;;;;;8.70;6.10;;;15.80;39.90;;;;;;5035008;28;20304;-41
2022/11/25 12:03:59;;;;;;;9.13;6.53;;;15.80;40.50;;;;;;5034912;28;20691;-40
2022/11/25 12:06:30;;;;;;;12.98;6.90;;;15.70;39.30;;;;;;5034159;28;20269;-41
2022/11/25 12:09:02;;;;;;;9.15;6.93;;;15.60;39.90;;;;;;5034674;28;20232;-41
2022/11/25 12:11:39;;;;;;;7.55;5.50;;;15.60;39.20;;;;;;5034761;28;20530;-41
2022/11/25 12:14:38;;;;;;;8.95;7.57;;;15.50;39.50;;;;;;5034640;28;20174;-37
2022/11/25 12:17:14;;;;;;;14.68;7.38;;;15.50;39.90;;;;;;5034093;28;20208;-39
2022/11/25 12:19:55;;;;;;;12.13;6.40;;;16.00;40.40;;;;;;5033298;28;20193;-37
2022/11/25 12:22:31;;;;;;;9.57;6.75;;;16.30;39.30;;;;;;5034817;28;20196;-38
2022/11/25 12:25:35;;;;;;;10.25;7.53;;;16.30;38.10;;;;;;5034646;28;20201;-38
2022/11/25 12:28:16;;;;;;;11.32;7.35;;;16.10;38.10;;;;;;5033699;28;20252;-37
2022/11/25 12:31:19;;;;;;;11.50;7.82;;;15.90;38.40;;;;;;5034603;28;20174;-40
2022/11/25 12:34:01;;;;;;;9.85;6.20;;;15.70;39.20;;;;;;5034721;28;20215;-37
2022/11/25 12:36:34;;;;;;;13.20;7.30;;;15.50;39.40;;;;;;5033637;28;20193;-37
2022/11/25 12:39:04;;;;;;;7.40;5.22;;;15.50;40.00;;;;;;5034290;28;20194;-36
2022/11/25 12:41:48;;;;;;;13.98;7.05;;;15.60;40.60;;;;;;5034337;28;20182;-37
2022/11/25 12:44:25;;;;;;;10.32;6.53;;;15.80;39.90;;;;;;5034186;28;20209;-36
2022/11/25 12:46:55;;;;;;;13.27;7.38;;;16.00;39.80;;;;;;5033559;28;20614;-37
2022/11/25 12:49:28;;;;;;;9.73;7.78;;;16.30;39.50;;;;;;5034212;28;20198;-37
2022/11/25 12:51:53;;;;;;;7.63;6.03;;;16.50;38.90;;;;;;5034068;28;20174;-40
2022/11/25 12:54:37;;;;;;;13.47;7.07;;;16.40;38.60;;;;;;5034170;28;20177;-40
2022/11/25 12:57:06;;;;;;;7.35;5.90;;;16.30;37.70;;;;;;5033178;28;20162;-41
2022/11/25 12:59:32;;;;;;;8.88;6.82;;;16.00;38.40;;;;;;5033766;28;20518;-40
2022/11/25 13:02:16;;;;;;;10.33;6.00;;;15.80;38.40;;;;;;5033990;28;20177;-41
2022/11/25 13:05:25;;;;;;;16.60;8.25;;;15.70;39.50;;;;;;5034035;28;20201;-40
2022/11/25 13:08:20;;;;;;;11.00;7.70;;;15.50;39.60;;;;;;5032740;28;20189;-40
2022/11/25 13:10:45;;;;;;;12.02;7.57;;;15.50;40.30;;;;;;5033631;28;20158;-41